createdAt,value
2022-12-15T00:05:29.757Z,-3.5
2022-12-15T00:07:30.944Z,-3.5
2022-12-15T00:09:32.147Z,-3.7
2022-12-15T00:11:33.388Z,-3.8
2022-12-15T00:13:36.131Z,-3.8
2022-12-15T00:15:37.373Z,-3.8
2022-12-15T00:17:41.909Z,-3.9
2022-12-15T00:19:43.134Z,-3.9
2022-12-15T00:21:44.299Z,-3.9
2022-12-15T00:23:45.493Z,-3.8
2022-12-15T00:31:53.741Z,-3.6
2022-12-15T00:33:54.842Z,-3.7
2022-12-15T00:35:56.031Z,-3.7
2022-12-15T00:37:57.275Z,-3.7
2022-12-15T00:39:58.434Z,-3.7
2022-12-15T00:46:05.469Z,-3.9
2022-12-15T00:48:06.627Z,-3.9
2022-12-15T00:50:07.837Z,-3.8
2022-12-15T00:51:10.156Z,-3.8
2022-12-15T00:53:11.312Z,-3.9
2022-12-15T00:55:12.528Z,-3.8
2022-12-15T00:57:13.717Z,-3.8
2022-12-15T00:59:18.350Z,-3.8
2022-12-15T01:03:20.847Z,-3.8
2022-12-15T01:05:21.957Z,-3.8
2022-12-15T01:07:23.131Z,-3.7
2022-12-15T01:09:24.321Z,-3.7
2022-12-15T01:13:30.576Z,-3.6
2022-12-15T01:15:31.367Z,-3.7
2022-12-15T01:17:32.561Z,-3.7
2022-12-15T01:19:33.732Z,-3.7
2022-12-15T01:27:41.962Z,-3.8
2022-12-15T01:31:44.537Z,-3.8
2022-12-15T01:33:45.556Z,-3.9
2022-12-15T01:35:46.749Z,-3.9
2022-12-15T01:37:50.037Z,-4.1
2022-12-15T01:39:49.160Z,-4.1
2022-12-15T01:41:53.768Z,-4.2
2022-12-15T01:43:54.994Z,-4.2
2022-12-15T01:45:56.161Z,-4.2
2022-12-15T01:48:19.521Z,-4.1
2022-12-15T01:50:20.730Z,-4.1
2022-12-15T01:52:21.932Z,-4.2
2022-12-15T01:54:26.523Z,-4.1
2022-12-15T01:58:28.890Z,-4.4
2022-12-15T02:00:30.163Z,-4.5
2022-12-15T02:02:34.410Z,-4.6
2022-12-15T02:04:32.418Z,-4.7
2022-12-15T02:06:33.595Z,-4.8
2022-12-15T02:08:38.190Z,-4.8
2022-12-15T02:10:39.383Z,-4.8
2022-12-15T02:12:40.548Z,-4.7
2022-12-15T02:14:41.742Z,-4.5
2022-12-15T02:16:42.984Z,-4.4
2022-12-15T02:18:44.043Z,-4.1
2022-12-15T02:20:45.194Z,-4.1
2022-12-15T02:22:49.783Z,-3.9
2022-12-15T02:24:50.967Z,-3.9
2022-12-15T02:26:52.109Z,-4
2022-12-15T02:28:53.306Z,-4.1
2022-12-15T02:30:54.473Z,-4
2022-12-15T02:32:55.659Z,-4
2022-12-15T02:34:56.816Z,-4
2022-12-15T02:37:01.389Z,-4
2022-12-15T02:41:03.770Z,-4.1
2022-12-15T02:44:07.259Z,-4.1
2022-12-15T02:46:08.486Z,-4.1
2022-12-15T02:48:09.605Z,-4
2022-12-15T02:50:14.194Z,-3.9
2022-12-15T02:52:15.365Z,-3.9
2022-12-15T02:54:16.539Z,-3.8
2022-12-15T02:56:17.714Z,-3.8
2022-12-15T02:58:18.923Z,-3.8
2022-12-15T03:00:20.106Z,-3.9
2022-12-15T03:02:21.362Z,-3.9
2022-12-15T03:04:25.849Z,-3.9
2022-12-15T03:06:27.050Z,-3.9
2022-12-15T03:08:28.244Z,-3.9
2022-12-15T03:10:29.454Z,-3.9
2022-12-15T03:12:30.606Z,-3.9
2022-12-15T03:14:31.803Z,-3.9
2022-12-15T03:16:33.116Z,-3.8
2022-12-15T03:18:37.587Z,-3.9
2022-12-15T03:20:38.770Z,-3.9
2022-12-15T03:22:39.959Z,-4
2022-12-15T03:24:41.170Z,-3.9
2022-12-15T03:26:42.331Z,-3.9
2022-12-15T03:28:43.541Z,-4
2022-12-15T03:30:44.891Z,-3.9
2022-12-15T03:32:49.334Z,-3.8
2022-12-15T03:34:50.526Z,-3.8
2022-12-15T03:36:51.709Z,-3.9
2022-12-15T03:37:54.012Z,-3.9
2022-12-15T03:39:55.184Z,-3.9
2022-12-15T03:46:02.231Z,-4
2022-12-15T03:48:03.361Z,-4
2022-12-15T03:52:05.728Z,-3.9
2022-12-15T03:54:06.911Z,-3.9
2022-12-15T03:56:08.097Z,-3.9
2022-12-15T03:58:09.281Z,-4
2022-12-15T04:00:13.886Z,-4.1
2022-12-15T04:02:15.298Z,-3.9
2022-12-15T04:04:16.255Z,-3.8
2022-12-15T04:06:17.425Z,-3.8
2022-12-15T04:08:18.627Z,-3.8
2022-12-15T04:10:19.796Z,-3.9
2022-12-15T04:12:20.962Z,-3.8
2022-12-15T04:14:25.575Z,-3.9
2022-12-15T04:16:26.825Z,-3.9
2022-12-15T04:18:28.062Z,-3.8
2022-12-15T04:20:29.164Z,-3.7
2022-12-15T04:22:30.348Z,-3.7
2022-12-15T04:24:31.533Z,-3.7
2022-12-15T04:26:32.730Z,-3.7
2022-12-15T04:28:37.363Z,-3.7
2022-12-15T04:30:38.577Z,-3.7
2022-12-15T04:32:39.747Z,-3.6
2022-12-15T04:33:42.062Z,-3.7
2022-12-15T04:35:43.265Z,-3.7
2022-12-15T04:37:44.458Z,-3.8
2022-12-15T04:39:45.646Z,-3.9
2022-12-15T04:41:50.254Z,-3.9
2022-12-15T04:43:51.442Z,-3.9
2022-12-15T04:45:52.753Z,-3.8
2022-12-15T04:47:53.844Z,-3.9
2022-12-15T04:49:55.065Z,-4
2022-12-15T04:51:56.241Z,-4
2022-12-15T04:53:57.461Z,-3.9
2022-12-15T04:56:02.068Z,-3.9
2022-12-15T04:58:03.262Z,-3.9
2022-12-15T05:00:04.460Z,-3.9
2022-12-15T05:02:05.771Z,-3.9
2022-12-15T05:04:06.871Z,-3.9
2022-12-15T05:06:08.102Z,-4
2022-12-15T05:08:09.294Z,-4
2022-12-15T05:10:15.371Z,-4.1
2022-12-15T05:12:15.099Z,-4.1
2022-12-15T05:14:16.262Z,-4.1
2022-12-15T05:18:18.616Z,-4.3
2022-12-15T05:20:19.816Z,-4.5
2022-12-15T05:22:20.975Z,-4.7
2022-12-15T05:24:25.603Z,-4.4
2022-12-15T05:26:26.781Z,-4.3
2022-12-15T05:28:27.953Z,-4.1
2022-12-15T05:30:51.355Z,-4.3
2022-12-15T05:34:53.729Z,-4.3
2022-12-15T05:38:59.519Z,-4.3
2022-12-15T05:41:00.677Z,-4.4
2022-12-15T05:45:03.018Z,-4
2022-12-15T05:47:04.192Z,-3.8
2022-12-15T05:49:05.386Z,-3.8
2022-12-15T05:51:09.935Z,-3.7
2022-12-15T05:53:11.125Z,-3.6
2022-12-15T05:57:13.485Z,-3.4
2022-12-15T06:05:23.165Z,-3.7
2022-12-15T06:23:37.311Z,-3.8
2022-12-15T06:24:39.613Z,-3.9
2022-12-15T06:26:40.802Z,-3.8
2022-12-15T06:28:42.012Z,-3.8
2022-12-15T06:30:43.189Z,-3.7
2022-12-15T06:32:49.884Z,-3.6
2022-12-15T06:34:49.162Z,-3.5
2022-12-15T06:36:50.218Z,-3.6
2022-12-15T06:38:51.400Z,-3.6
2022-12-15T06:40:52.603Z,-3.6
2022-12-15T06:42:53.820Z,-3.5
2022-12-15T06:44:55.003Z,-3.4
2022-12-15T06:46:59.663Z,-3.4
2022-12-15T06:49:00.826Z,-3.5
2022-12-15T06:51:02.020Z,-3.5
2022-12-15T06:53:03.280Z,-3.5
2022-12-15T06:55:04.447Z,-3.4
2022-12-15T06:57:05.653Z,-3.4
2022-12-15T06:59:06.881Z,-3.3
2022-12-15T07:01:11.508Z,-3.4
2022-12-15T07:03:13.006Z,-3.3
2022-12-15T07:05:13.906Z,-3.4
2022-12-15T07:07:15.118Z,-3.4
2022-12-15T07:09:16.344Z,-3.4
2022-12-15T07:11:17.561Z,-3.5
2022-12-15T07:13:18.748Z,-3.6
2022-12-15T07:15:23.399Z,-3.5
2022-12-15T07:17:24.598Z,-3.5
2022-12-15T07:19:25.805Z,-3.5
2022-12-15T07:20:29.047Z,-3.4
2022-12-15T07:22:29.383Z,-3.3
2022-12-15T07:24:30.520Z,-3.4
2022-12-15T07:26:31.729Z,-3.4
2022-12-15T07:28:36.417Z,-3.3
2022-12-15T07:30:39.048Z,-3.4
2022-12-15T07:32:38.780Z,-3.3
2022-12-15T07:34:40.004Z,-3.3
2022-12-15T07:36:41.670Z,-3.4
2022-12-15T07:38:42.438Z,-3.6
2022-12-15T07:40:43.612Z,-3.7
2022-12-15T07:42:48.235Z,-3.6
2022-12-15T07:44:49.942Z,-3.5
2022-12-15T07:48:51.844Z,-3.3
2022-12-15T07:50:53.046Z,-3.1
2022-12-15T07:52:54.223Z,-2.9
2022-12-15T07:54:55.442Z,-2.8
2022-12-15T07:57:00.142Z,-2.5
2022-12-15T07:59:01.261Z,-2.4
2022-12-15T08:01:02.511Z,-2.2
2022-12-15T08:03:03.831Z,-2.1
2022-12-15T08:05:04.868Z,-2
2022-12-15T08:07:06.121Z,-1.6
2022-12-15T08:09:07.297Z,-1.4
2022-12-15T08:11:11.979Z,-1.1
2022-12-15T08:13:26.006Z,-1
2022-12-15T08:15:14.328Z,-0.8
2022-12-15T08:16:16.676Z,-0.8
2022-12-15T08:18:17.889Z,-0.7
2022-12-15T08:20:19.099Z,-0.6
2022-12-15T08:22:20.953Z,-0.4
2022-12-15T08:24:25.595Z,-0.3
2022-12-15T08:26:30.254Z,-0.4
2022-12-15T08:28:28.030Z,-0.4
2022-12-15T08:30:29.219Z,-0.1
2022-12-15T08:32:30.459Z,0.2
2022-12-15T08:34:31.718Z,0.4
2022-12-15T08:36:32.916Z,0.4
2022-12-15T08:38:37.598Z,0.7
2022-12-15T08:42:40.050Z,1.1
2022-12-15T08:44:41.265Z,0.7
2022-12-15T08:53:13.829Z,1.2
2022-12-15T08:56:52.094Z,2.1
2022-12-15T08:58:53.300Z,2.9
2022-12-15T09:00:54.587Z,3.7
2022-12-15T09:02:55.811Z,3.6
2022-12-15T09:04:57.046Z,3.5
2022-12-15T09:07:01.689Z,3
2022-12-15T09:09:02.939Z,3.1
2022-12-15T09:11:04.195Z,3.1
2022-12-15T09:17:30.048Z,3.2
2022-12-15T09:23:37.358Z,3.1
2022-12-15T09:25:38.541Z,3.2
2022-12-15T09:27:39.793Z,3.6
2022-12-15T09:29:41.103Z,3.2
2022-12-15T09:31:42.374Z,3
2022-12-15T09:33:47.078Z,2.6
2022-12-15T09:35:48.329Z,2.5
2022-12-15T09:37:51.898Z,2.4
2022-12-15T09:39:50.925Z,2.4
2022-12-15T09:41:52.241Z,2.2
2022-12-15T09:43:53.907Z,2.5
2022-12-15T09:45:54.886Z,2.5
2022-12-15T09:47:59.529Z,2.3
2022-12-15T09:50:00.834Z,2.2
2022-12-15T09:52:07.166Z,1.6
2022-12-15T09:54:03.684Z,1.3
2022-12-15T09:56:04.723Z,1
2022-12-15T09:58:10.816Z,1.3
2022-12-15T10:00:07.314Z,1.4
2022-12-15T10:02:12.202Z,0.6
2022-12-15T10:04:13.351Z,0.5
2022-12-15T10:06:16.512Z,0.4
2022-12-15T10:11:19.604Z,0.1
2022-12-15T10:13:20.910Z,0.1
2022-12-15T10:15:25.629Z,0.3
2022-12-15T10:17:26.966Z,0.3
2022-12-15T10:21:29.524Z,0.5
2022-12-15T10:23:31.194Z,0.4
2022-12-15T10:25:32.215Z,0.5
2022-12-15T10:31:39.527Z,1
2022-12-15T10:33:47.028Z,1.2
2022-12-15T10:35:42.182Z,1.3
2022-12-15T10:37:43.484Z,1.3
2022-12-15T10:39:44.777Z,1.5
2022-12-15T10:41:46.101Z,1.6
2022-12-15T10:43:50.866Z,1.7
2022-12-15T10:45:52.182Z,1.7
2022-12-15T10:47:53.456Z,1.7
2022-12-15T10:49:54.823Z,1.9
2022-12-15T10:51:56.128Z,1.8
2022-12-15T10:53:57.451Z,1.8
2022-12-15T10:55:58.806Z,1.7
2022-12-15T10:58:03.553Z,1.5
2022-12-15T11:00:04.866Z,1.5
2022-12-15T11:02:06.389Z,1.5
2022-12-15T11:05:09.920Z,1.5
2022-12-15T11:07:11.223Z,1.5
2022-12-15T11:09:12.563Z,1.4
2022-12-15T11:11:17.326Z,1.3
2022-12-15T11:13:18.653Z,1.3
2022-12-15T11:15:19.968Z,1.3
2022-12-15T11:17:21.295Z,1.2
2022-12-15T11:19:22.626Z,1.2
2022-12-15T11:23:25.293Z,1.1
2022-12-15T11:25:30.031Z,1.3
2022-12-15T11:27:31.384Z,1.3
2022-12-15T11:29:32.723Z,1.3
2022-12-15T11:31:34.051Z,1.3
2022-12-15T11:33:35.586Z,1.4
2022-12-15T11:35:36.701Z,1.5
2022-12-15T11:37:38.048Z,1.6
2022-12-15T11:39:42.807Z,1.9
2022-12-15T11:43:45.463Z,1.9
2022-12-15T11:45:46.798Z,2
2022-12-15T11:47:48.141Z,2.1
2022-12-15T11:49:49.381Z,2
2022-12-15T11:51:50.681Z,1.8
2022-12-15T11:53:57.010Z,1.9
2022-12-15T11:55:58.292Z,2
2022-12-15T11:57:59.681Z,2
2022-12-15T12:01:03.384Z,2
2022-12-15T12:03:04.819Z,2.1
2022-12-15T12:05:06.085Z,2.3
2022-12-15T12:07:10.751Z,2.4
2022-12-15T12:09:12.113Z,2.4
2022-12-15T12:11:13.512Z,2.4
2022-12-15T12:13:14.761Z,2.2
2022-12-15T12:17:17.245Z,2.2
2022-12-15T12:19:18.629Z,2.2
2022-12-15T12:21:23.342Z,2.2
2022-12-15T12:23:24.664Z,2.2
2022-12-15T12:27:27.283Z,2.4
2022-12-15T12:29:28.549Z,2.4
2022-12-15T12:31:29.817Z,2.3
2022-12-15T12:33:31.149Z,2.5
2022-12-15T12:37:37.266Z,2.7
2022-12-15T12:39:38.506Z,2.7
2022-12-15T12:41:39.856Z,2.6
2022-12-15T12:43:41.119Z,2.6
2022-12-15T12:45:42.402Z,2.6
2022-12-15T12:47:43.655Z,2.6
2022-12-15T12:49:50.320Z,2.4
2022-12-15T12:51:49.508Z,2.4
2022-12-15T12:53:50.838Z,2.3
2022-12-15T12:56:08.144Z,2.3
2022-12-15T12:58:09.412Z,2.3
2022-12-15T13:00:10.670Z,2.5
2022-12-15T13:06:17.929Z,2.4
2022-12-15T13:08:19.172Z,2.3
2022-12-15T13:10:20.515Z,2.3
2022-12-15T13:12:50.499Z,2.2
2022-12-15T13:16:27.599Z,2.2
2022-12-15T13:18:29.413Z,2.1
2022-12-15T13:20:30.232Z,2
2022-12-15T13:22:31.498Z,1.9
2022-12-15T13:40:46.760Z,1.8
2022-12-15T13:42:56.240Z,1.8
2022-12-15T13:44:52.877Z,1.8
2022-12-15T13:46:54.234Z,1.8
2022-12-15T13:48:55.637Z,2
2022-12-15T13:50:01.792Z,2.1
2022-12-15T13:51:59.358Z,2.1
2022-12-15T13:54:00.601Z,1.9
2022-12-15T13:56:01.830Z,1.6
2022-12-15T13:58:06.480Z,1.4
2022-12-15T14:00:07.826Z,1.4
2022-12-15T14:02:09.234Z,1.6
2022-12-15T14:04:10.519Z,2
2022-12-15T14:06:11.884Z,1.7
2022-12-15T14:08:13.242Z,1.5
2022-12-15T14:10:14.619Z,2
2022-12-15T14:12:19.325Z,1.5
2022-12-15T14:14:20.657Z,1.4
2022-12-15T14:16:22.206Z,1.3
2022-12-15T14:18:23.401Z,1.4
2022-12-15T14:20:24.742Z,1.4
2022-12-15T14:22:28.085Z,1.6
2022-12-15T14:28:33.536Z,1.2
2022-12-15T14:30:34.884Z,1.1
2022-12-15T14:32:36.221Z,1.1
2022-12-15T14:34:37.565Z,1.1
2022-12-15T14:38:40.244Z,1.6
2022-12-15T14:40:44.993Z,1.3
2022-12-15T14:42:46.340Z,1.2
2022-12-15T14:45:50.124Z,1.3
2022-12-15T14:48:06.049Z,1.5
2022-12-15T14:49:52.764Z,1.3
2022-12-15T14:51:54.865Z,1.4
2022-12-15T14:53:58.862Z,1.1
2022-12-15T14:56:00.234Z,1
2022-12-15T14:58:01.537Z,1
2022-12-15T15:00:02.895Z,0.9
2022-12-15T15:03:09.494Z,2.1
2022-12-15T15:04:05.582Z,0.7
2022-12-15T15:06:06.938Z,0.8
2022-12-15T15:08:11.716Z,0.7
2022-12-15T15:10:13.060Z,0.6
2022-12-15T15:12:14.393Z,0.5
2022-12-15T15:14:15.714Z,0.4
2022-12-15T15:16:17.090Z,0.3
2022-12-15T15:18:18.384Z,0.3
2022-12-15T15:20:19.699Z,0.2
2022-12-15T15:24:25.752Z,0.1
2022-12-15T15:30:29.786Z,-0.2
2022-12-15T15:34:32.357Z,-0.2
2022-12-15T15:40:39.736Z,-0.4
2022-12-15T15:41:42.107Z,-0.5
2022-12-15T15:43:43.445Z,-0.5
2022-12-15T15:45:44.770Z,-0.5
2022-12-15T15:47:46.004Z,-0.5
2022-12-15T15:49:50.790Z,-0.7
2022-12-15T15:51:52.091Z,-0.7
2022-12-15T15:53:53.400Z,-0.6
2022-12-15T15:57:56.009Z,-0.7
2022-12-15T15:59:57.340Z,-0.6
2022-12-15T16:10:07.278Z,-0.7
2022-12-15T16:16:11.336Z,-0.8
2022-12-15T16:18:15.882Z,-0.8
2022-12-15T16:20:17.195Z,-0.8
2022-12-15T16:22:18.482Z,-0.8
2022-12-15T16:24:19.771Z,-0.9
2022-12-15T16:26:21.099Z,-0.9
2022-12-15T16:28:22.373Z,-0.8
2022-12-15T16:30:23.678Z,-0.9
2022-12-15T16:32:28.350Z,-0.9
2022-12-15T16:34:29.657Z,-0.8
2022-12-15T16:36:30.960Z,-0.8
2022-12-15T16:39:00.113Z,-0.7
2022-12-15T16:41:01.401Z,-0.8
2022-12-15T16:57:15.133Z,-0.8
2022-12-15T16:59:33.080Z,-0.8
2022-12-15T17:07:25.024Z,-1
2022-12-15T17:19:36.132Z,-0.9
2022-12-15T17:27:44.703Z,-1
2022-12-15T17:29:45.991Z,-1
2022-12-15T17:31:47.331Z,-1
2022-12-15T17:32:49.630Z,-1
2022-12-15T17:34:50.886Z,-1
2022-12-15T17:36:52.189Z,-1.1
2022-12-15T17:38:53.469Z,-1.1
2022-12-15T17:40:58.206Z,-1
2022-12-15T17:43:01.068Z,-1
2022-12-15T17:45:02.391Z,-1
2022-12-15T17:51:06.159Z,-1.1
2022-12-15T17:53:07.443Z,-1.1
2022-12-15T17:55:12.137Z,-1.1
2022-12-15T17:59:14.711Z,-1.1
2022-12-15T18:01:15.999Z,-1.1
2022-12-15T18:03:17.491Z,-1.1
2022-12-15T18:05:18.562Z,-1.1
2022-12-15T18:07:19.848Z,-1.2
2022-12-15T18:09:24.512Z,-1.3
2022-12-15T18:11:25.806Z,-1.2
2022-12-15T18:13:30.347Z,-1.2
2022-12-15T18:15:28.411Z,-1.2
2022-12-15T18:17:29.655Z,-1.2
2022-12-15T18:21:32.226Z,-1.1
2022-12-15T18:23:36.943Z,-1.1
2022-12-15T18:25:38.215Z,-1.2
2022-12-15T18:27:39.477Z,-1.2
2022-12-15T18:28:41.836Z,-1.3
2022-12-15T18:30:43.131Z,-1.2
2022-12-15T18:32:44.412Z,-1.2
2022-12-15T18:34:45.678Z,-1.2
2022-12-15T18:42:54.241Z,-1.1
2022-12-15T18:44:55.523Z,-1
2022-12-15T18:46:56.880Z,-0.9
2022-12-15T18:48:58.137Z,-1
2022-12-15T18:51:02.760Z,-0.9
2022-12-15T18:53:04.062Z,-0.8
2022-12-15T18:55:05.370Z,-0.7
2022-12-15T18:57:06.670Z,-0.6
2022-12-15T18:59:07.919Z,-0.6
2022-12-15T19:01:09.338Z,-0.6
2022-12-15T19:03:10.571Z,-0.5
2022-12-15T19:05:15.230Z,-0.5
2022-12-15T19:07:16.527Z,-0.5
2022-12-15T19:09:17.798Z,-0.5
2022-12-15T19:11:19.095Z,-0.5
2022-12-15T19:13:20.400Z,-0.6
2022-12-15T19:15:21.712Z,-0.7
2022-12-15T19:17:23.002Z,-0.7
2022-12-15T19:19:27.721Z,-0.7
2022-12-15T19:21:29.032Z,-0.8
2022-12-15T19:23:30.698Z,-0.8
2022-12-15T19:24:32.682Z,-0.9
2022-12-15T19:26:33.979Z,-0.9
2022-12-15T19:28:35.271Z,-0.9
2022-12-15T19:30:42.095Z,-0.8
2022-12-15T19:32:41.290Z,-0.8
2022-12-15T19:34:42.611Z,-0.9
2022-12-15T19:38:45.194Z,-1
2022-12-15T19:40:46.487Z,-1
2022-12-15T19:42:47.816Z,-0.9
2022-12-15T19:44:49.100Z,-1
2022-12-15T19:46:53.814Z,-1.1
2022-12-15T19:48:55.087Z,-1.1
2022-12-15T19:50:56.382Z,-1
2022-12-15T19:52:57.695Z,-1
2022-12-15T19:54:58.968Z,-1
2022-12-15T19:57:00.250Z,-1
2022-12-15T19:59:01.561Z,-1
2022-12-15T20:01:06.340Z,-0.9
2022-12-15T20:03:07.769Z,-0.9
2022-12-15T20:05:08.852Z,-1
2022-12-15T20:07:10.132Z,-0.9
2022-12-15T20:09:11.422Z,-0.9
2022-12-15T20:11:12.720Z,-1
2022-12-15T20:13:14.003Z,-1
2022-12-15T20:15:18.718Z,-1
2022-12-15T20:17:19.989Z,-1
2022-12-15T20:19:21.278Z,-0.9
2022-12-15T20:21:44.620Z,-0.9
2022-12-15T20:23:45.909Z,-0.9
2022-12-15T20:25:47.182Z,-0.9
2022-12-15T20:27:51.901Z,-0.8
2022-12-15T20:29:53.201Z,-0.8
2022-12-15T20:31:54.679Z,-0.7
2022-12-15T20:33:55.774Z,-0.6
2022-12-15T20:35:57.070Z,-0.6
2022-12-15T20:37:58.368Z,-0.5
2022-12-15T20:39:59.672Z,-0.5
2022-12-15T20:42:04.392Z,-0.4
2022-12-15T20:44:05.730Z,-0.4
2022-12-15T20:46:07.084Z,-0.4
2022-12-15T20:48:08.308Z,-0.4
2022-12-15T20:50:09.582Z,-0.4
2022-12-15T20:52:10.903Z,-0.3
2022-12-15T20:56:16.927Z,-0.4
2022-12-15T21:08:24.768Z,-0.4
2022-12-15T21:15:34.481Z,-0.4
2022-12-15T21:17:41.581Z,-0.3
2022-12-15T21:19:37.084Z,-0.2
2022-12-15T21:21:38.392Z,-0.2
2022-12-15T21:23:43.118Z,0
2022-12-15T21:25:44.404Z,0
2022-12-15T21:27:45.712Z,0
2022-12-15T21:29:52.230Z,0
2022-12-15T21:31:48.344Z,-0.1
2022-12-15T21:33:49.629Z,-0.2
2022-12-15T21:35:50.957Z,-0.3
2022-12-15T21:37:55.687Z,-0.4
2022-12-15T21:39:56.990Z,-0.4
2022-12-15T21:41:58.304Z,-0.3
2022-12-15T21:43:59.619Z,-0.4
2022-12-15T21:46:00.971Z,-0.4
2022-12-15T21:48:02.244Z,-0.5
2022-12-15T21:50:03.595Z,-0.6
2022-12-15T21:52:08.298Z,-0.6
2022-12-15T21:54:09.597Z,-0.6
2022-12-15T21:56:10.908Z,-0.6
2022-12-15T21:58:12.226Z,-0.7
2022-12-15T22:00:13.541Z,-0.7
2022-12-15T22:02:14.895Z,-0.8
2022-12-15T22:04:16.113Z,-0.7
2022-12-15T22:06:20.829Z,-0.8
2022-12-15T22:08:22.146Z,-1
2022-12-15T22:10:23.458Z,-1
2022-12-15T22:11:25.809Z,-1
2022-12-15T22:13:27.089Z,-1.1
2022-12-15T22:15:28.479Z,-1.1
2022-12-15T22:17:29.729Z,-1.1
2022-12-15T22:25:38.350Z,-1.3
2022-12-15T22:29:40.926Z,-1.5
2022-12-15T22:31:42.193Z,-1.6
2022-12-15T22:33:46.905Z,-1.7
2022-12-15T22:35:48.244Z,-1.7
2022-12-15T22:37:49.537Z,-1.8
2022-12-15T22:39:50.792Z,-1.8
2022-12-15T22:43:53.356Z,-1.9
2022-12-15T22:45:54.716Z,-1.9
2022-12-15T22:47:59.327Z,-2.2
2022-12-15T22:52:01.860Z,-2.4
2022-12-15T22:54:03.152Z,-2.5
2022-12-15T22:56:04.404Z,-2.3
2022-12-15T22:58:05.628Z,-2.5
2022-12-15T23:00:06.922Z,-2.4
2022-12-15T23:02:11.604Z,-2.2
2022-12-15T23:07:16.416Z,-2.2
2022-12-15T23:09:17.650Z,-2.2
2022-12-15T23:11:18.916Z,-2.3
2022-12-15T23:13:20.175Z,-2.4
2022-12-15T23:15:24.856Z,-2.4
2022-12-15T23:17:26.076Z,-2.4
2022-12-15T23:19:27.338Z,-2.6
2022-12-15T23:21:28.600Z,-2.6
2022-12-15T23:23:30.227Z,-2.7
2022-12-15T23:25:31.080Z,-2.7
2022-12-15T23:29:36.941Z,-2.7
2022-12-15T23:33:40.997Z,-2.8
2022-12-15T23:43:50.519Z,-2.7
2022-12-15T23:45:51.778Z,-2.8
2022-12-15T23:47:52.983Z,-2.8
2022-12-15T23:49:54.215Z,-2.9
2022-12-15T23:51:55.446Z,-2.7
2022-12-15T23:53:56.681Z,-2.6
2022-12-15T23:55:57.938Z,-2.6
2022-12-15T23:58:02.539Z,-2.7
